MPTO/PTY METAR and TAF weather

Enter ICAO airport designator
Station Type Date Time Source
MPTO METAR 2019/10/21 02:00 UTC NOAA

MPTO 210200Z VRB02KT 9999 SCT008 SCT018 24/24 Q1011 NOSIG


Station Type Date Time Source
MPTO Decoded METAR 2019/10/21 02:00 UTC NOAA

Tocumen, Panama (MPTO) 09-03N 079-22W
Oct 20, 2019 - 10:00 PM EDT / 2019.10.21 0200 UTC
Wind: Variable at 2 MPH (2 KT):0
Visibility: greater than 7 mile(s):0
Sky conditions: partly cloudy
Temperature: 75 F (24 C)
Dew Point: 75 F (24 C)
Relative Humidity: 100%
Pressure (altimeter): 29.85 in. Hg (1011 hPa)
ob: MPTO 210200Z VRB02KT 9999 SCT008 SCT018 24/24 Q1011 NOSIG
cycle: 2

Station Type Date Time Source
MPTO TAF 2019/10/20 18:15 UTC NOAA

TAF MPTO 201700Z 2018/2124 15008KT 9999 SCT018 SCT090
BECMG 2018/2022 7000 RA SCT016CB BKN080
BECMG 2022/2102 NSW

Example: see airport list